^^
Your Local Weather - Clay, NY Station Historical Data
 
Daily Summary for October 18, 2018 Units:  English    Metric   Both
« Previous Day
Next Day »
Daily Weekly Monthly Yearly Custom
  Current: High: Low: Average:
Temperature: 40 °F 43.1 °F 30.7 °F 37.9 °F
Dew Point: 26.8 °F 30.9 °F 17.7 °F 22.6 °F
Humidity: 59% 70% 38% 54%
Wind Speed: 0mph 4mph 0mph 1.5mph
Wind Gust: 2mph 11mph - -
WindCalm - - NW
Pressure: 30.32 in 30.38 in 30.11 in -
Precipitation: 0.01 in      
Historical Graphs
 
 
Tabular Data for October 18, 2018
Time Temperature Dew Point Pressure Wind Wind Speed Wind Gust Humidity Rainfall Rate (Hourly) solar
00:04 40 °F 30.6 °F 30.11 in NW 1 mph 1 mph 69% 0 in 0.00 W/m2
00:08 39.9 °F 30.9 °F 30.11 in Calm   1 mph 70% 0 in 0.00 W/m2
00:14 39.8 °F 30.8 °F 30.11 in Calm     70% 0 in 0.00 W/m2
00:18 39.6 °F 30.6 °F 30.11 in NW 1 mph 1 mph 70% 0 in 0.00 W/m2
00:24 39.6 °F 30.3 °F 30.11 in NW 1 mph 5 mph 69% 0 in 0.00 W/m2
00:28 39.7 °F 30 °F 30.12 in NW 1 mph 5 mph 68% 0 in 0.00 W/m2
00:34 39.7 °F 28.5 °F 30.12 in NW 1 mph 3 mph 64% 0 in 0.00 W/m2
00:38 39.6 °F 27.2 °F 30.12 in NW 2 mph 3 mph 61% 0 in 0.00 W/m2
00:44 39.7 °F 26.1 °F 30.13 in NW 2 mph 6 mph 58% 0 in 0.00 W/m2
00:48 39.6 °F 26 °F 30.13 in NW 2 mph 6 mph 58% 0 in 0.00 W/m2
00:54 39.7 °F 25.7 °F 30.14 in NW 2 mph 4 mph 57% 0 in 0.00 W/m2
00:58 39.6 °F 25.6 °F 30.14 in NW 2 mph 8 mph 57% 0 in 0.00 W/m2
01:04 39.4 °F 23.7 °F 30.14 in NW 3 mph 7 mph 53% 0 in 0.00 W/m2
01:08 39.2 °F 22.1 °F 30.14 in WNW 3 mph 7 mph 50% 0 in 0.00 W/m2
01:14 39 °F 21.4 °F 30.15 in NW 4 mph 4 mph 49% 0 in 0.00 W/m2
01:18 38.9 °F 20.4 °F 30.15 in NW 3 mph 4 mph 47% 0 in 0.00 W/m2
01:24 38.8 °F 19.8 °F 30.15 in NW 4 mph 6 mph 46% 0 in 0.00 W/m2
01:28 38.8 °F 20.8 °F 30.15 in WNW 3 mph 6 mph 48% 0 in 0.00 W/m2
01:34 38.6 °F 19.6 °F 30.15 in NW 2 mph 4 mph 46% 0 in 0.00 W/m2
01:38 38.5 °F 20.5 °F 30.15 in NW 3 mph 5 mph 48% 0 in 0.00 W/m2
01:44 38.5 °F 21 °F 30.16 in NW 3 mph 6 mph 49% 0 in 0.00 W/m2
01:48 38.6 °F 20.6 °F 30.16 in NW 3 mph 6 mph 48% 0 in 0.00 W/m2
01:54 38.6 °F 20.6 °F 30.16 in NNW 3 mph 3 mph 48% 0 in 0.00 W/m2
01:58 38.5 °F 20.5 °F 30.16 in NNW 2 mph 3 mph 48% 0 in 0.00 W/m2
02:04 38.3 °F 20.3 °F 30.17 in NW 2 mph 2 mph 48% 0 in 0.00 W/m2
02:06 38.3 °F 20.8 °F 30.17 in NNW 2 mph 2 mph 49% 0 in 0.00 W/m2
02:14 38 °F 20.5 °F 30.17 in NW 2 mph 3 mph 49% 0 in 0.00 W/m2
02:18 38 °F 20.5 °F 30.17 in WNW 2 mph 3 mph 49% 0 in 0.00 W/m2
02:24 38 °F 20.5 °F 30.17 in NW 2 mph 3 mph 49% 0 in 0.00 W/m2
02:28 38 °F 20.5 °F 30.18 in NW 2 mph 5 mph 49% 0 in 0.00 W/m2
02:34 38.1 °F 20.1 °F 30.17 in NW 2 mph 4 mph 48% 0 in 0.00 W/m2
02:38 38 °F 20.5 °F 30.17 in NW 2 mph 4 mph 49% 0 in 0.00 W/m2
02:44 37.9 °F 20.4 °F 30.18 in NW 2 mph 8 mph 49% 0 in 0.00 W/m2
02:48 37.8 °F 20.3 °F 30.18 in NW 2 mph 8 mph 49% 0 in 0.00 W/m2
02:54 37.7 °F 20.7 °F 30.18 in North 1 mph 2 mph 50% 0 in 0.00 W/m2
02:58 37.7 °F 21.2 °F 30.19 in NNW 1 mph 4 mph 51% 0 in 0.00 W/m2
03:00 37.6 °F 19.7 °F 30.19 in NNW 1 mph 3 mph 48% 0 in 0.00 W/m2
03:18 37.5 °F 21.5 °F 30.20 in WNW 1 mph 5 mph 52% 0 in 0.00 W/m2
03:24 37.2 °F 20.7 °F 30.20 in NW 1 mph 5 mph 51% 0 in 0.00 W/m2
03:28 37.2 °F 21.2 °F 30.20 in NNW 1 mph 5 mph 52% 0 in 0.00 W/m2
03:34 37.2 °F 21.6 °F 30.21 in NW 2 mph 4 mph 53% 0 in 0.00 W/m2
03:38 37.1 °F 21.1 °F 30.21 in NW 1 mph 4 mph 52% 0 in 0.00 W/m2
03:44 37 °F 21.9 °F 30.21 in NW 1 mph 1 mph 54% 0 in 0.00 W/m2
03:48 36.8 °F 21.3 °F 30.22 in NW 1 mph 1 mph 53% 0 in 0.00 W/m2
03:54 36.6 °F 21.5 °F 30.22 in NW 1 mph 3 mph 54% 0 in 0.00 W/m2
03:58 36.6 °F 21.5 °F 30.22 in NW 1 mph 3 mph 54% 0 in 0.00 W/m2
04:04 36.5 °F 22.3 °F 30.22 in Calm   5 mph 56% 0 in 0.00 W/m2
04:08 36.5 °F 22.3 °F 30.22 in NW 1 mph 6 mph 56% 0 in 0.00 W/m2
04:14 36.6 °F 21.1 °F 30.22 in NW 2 mph 5 mph 53% 0 in 0.00 W/m2
04:18 36.5 °F 21.8 °F 30.22 in NNW 1 mph 5 mph 55% 0 in 0.00 W/m2
04:24 36.3 °F 22.1 °F 30.23 in NNW 1 mph 2 mph 56% 0 in 0.00 W/m2
04:28 36.3 °F 21.7 °F 30.23 in NNW 1 mph 2 mph 55% 0 in 0.00 W/m2
04:34 36 °F 21.8 °F 30.23 in Calm   1 mph 56% 0 in 0.00 W/m2
04:38 36 °F 21.8 °F 30.23 in NW 1 mph 3 mph 56% 0 in 0.00 W/m2
04:44 35.9 °F 22.1 °F 30.24 in NW 1 mph 1 mph 57% 0 in 0.00 W/m2
04:48 35.6 °F 21.4 °F 30.25 in Calm   1 mph 56% 0 in 0.00 W/m2
04:54 35.6 °F 21 °F 30.25 in NW 1 mph 3 mph 55% 0 in 0.00 W/m2
04:58 35.5 °F 21.3 °F 30.25 in NW 1 mph 3 mph 56% 0 in 0.00 W/m2
05:04 35.2 °F 21.5 °F 30.26 in Calm   1 mph 57% 0 in 0.00 W/m2
05:08 34.9 °F 21.2 °F 30.26 in Calm   1 mph 57% 0 in 0.00 W/m2
05:14 34.7 °F 21.4 °F 30.26 in Calm     58% 0 in 0.00 W/m2
05:18 34.5 °F 21.6 °F 30.26 in Calm     59% 0 in 0.00 W/m2
05:24 34 °F 21.6 °F 30.26 in Calm     60% 0 in 0.00 W/m2
05:28 33.7 °F 21.7 °F 30.27 in Calm     61% 0 in 0.00 W/m2
05:34 33.6 °F 21.6 °F 30.27 in Calm     61% 0 in 0.00 W/m2
05:38 33.5 °F 21.9 °F 30.27 in Calm     62% 0 in 0.00 W/m2
05:44 33.3 °F 21.7 °F 30.28 in Calm     62% 0 in 0.00 W/m2
05:48 33.1 °F 21.9 °F 30.28 in Calm     63% 0 in 0.00 W/m2
05:54 32.7 °F 21.5 °F 30.28 in Calm     63% 0 in 0.00 W/m2
05:58 32.4 °F 21.9 °F 30.28 in Calm     65% 0 in 0.00 W/m2
06:04 32 °F 21.6 °F 30.29 in Calm     65% 0 in 0.00 W/m2
06:08 32 °F 21.6 °F 30.29 in Calm   1 mph 65% 0 in 0.00 W/m2
06:14 32.1 °F 21.7 °F 30.29 in Calm     65% 0 in 0.00 W/m2
06:18 32 °F 21.6 °F 30.29 in Calm     65% 0 in 0.00 W/m2
06:24 32 °F 21.6 °F 30.30 in Calm     65% 0 in 0.00 W/m2
06:28 32.1 °F 21.7 °F 30.30 in Calm     65% 0 in 0.00 W/m2
06:34 32 °F 21.6 °F 30.30 in Calm     65% 0 in 0.00 W/m2
06:38 32 °F 21.6 °F 30.30 in Calm     65% 0 in 0.00 W/m2
06:44 31.8 °F 21.4 °F 30.31 in Calm     65% 0 in 0.00 W/m2
06:48 31.6 °F 21.9 °F 30.31 in Calm     67% 0 in 0.00 W/m2
06:54 31.5 °F 21.8 °F 30.31 in Calm     67% 0 in 0.00 W/m2
06:58 31.6 °F 21.9 °F 30.31 in Calm     67% 0 in 0.00 W/m2
07:04 31.7 °F 22 °F 30.31 in Calm     67% 0 in 0.00 W/m2
07:08 31.6 °F 22.2 °F 30.32 in Calm     68% 0 in 0.00 W/m2
07:14 31.4 °F 22.1 °F 30.33 in Calm     68% 0 in 0.00 W/m2
07:18 31.2 °F 21.9 °F 30.33 in Calm     68% 0 in 0.00 W/m2
07:24 31.1 °F 21.8 °F 30.33 in Calm     68% 0 in 5.00 W/m2
07:28 30.9 °F 21.9 °F 30.33 in Calm     69% 0 in 5.00 W/m2
07:34 30.8 °F 21.8 °F 30.33 in Calm     69% 0 in 7.00 W/m2
07:38 30.8 °F 21.8 °F 30.34 in Calm     69% 0 in 9.00 W/m2
07:44 30.8 °F 22.2 °F 30.34 in Calm     70% 0 in 12.00 W/m2
07:48 30.8 °F 22.2 °F 30.34 in Calm     70% 0 in 14.00 W/m2
07:54 30.7 °F 22.1 °F 30.34 in Calm     70% 0 in 16.00 W/m2
07:58 30.9 °F 22.3 °F 30.34 in Calm     70% 0 in 19.00 W/m2
08:04 31.4 °F 22.4 °F 30.35 in Calm     69% 0 in 21.00 W/m2
08:08 31.9 °F 22.5 °F 30.34 in Calm     68% 0 in 25.00 W/m2
08:14 32.4 °F 22.7 °F 30.35 in Calm     67% 0 in 30.00 W/m2
08:18 32.6 °F 22.5 °F 30.35 in Calm     66% 0 in 30.00 W/m2
08:24 32.8 °F 22.3 °F 30.35 in Calm     65% 0 in 32.00 W/m2
08:28 33.1 °F 23 °F 30.35 in Calm     66% 0 in 46.00 W/m2
08:34 33.7 °F 22.4 °F 30.35 in Calm   3 mph 63% 0 in 79.00 W/m2
08:38 34.4 °F 22.7 °F 30.35 in NW 1 mph 3 mph 62% 0 in 111.00 W/m2
08:44 35 °F 23.3 °F 30.35 in Calm   1 mph 62% 0 in 111.00 W/m2
08:48 35.4 °F 23.3 °F 30.36 in Calm   1 mph 61% 0 in 144.00 W/m2
08:54 35.8 °F 22.9 °F 30.36 in NNW 1 mph 5 mph 59% 0 in 213.00 W/m2
08:58 36.1 °F 23.9 °F 30.36 in NNW 1 mph 5 mph 61% 0 in 174.00 W/m2
09:04 36.4 °F 23 °F 30.36 in NW 1 mph 4 mph 58% 0 in 227.00 W/m2
09:08 36.8 °F 23 °F 30.36 in NW 1 mph 4 mph 57% 0 in 246.00 W/m2
09:14 37 °F 22.7 °F 30.36 in NW 1 mph 3 mph 56% 0 in 258.00 W/m2
09:18 37.3 °F 23 °F 30.36 in NW 2 mph 4 mph 56% 0 in 237.00 W/m2
09:24 37.9 °F 24.4 °F 30.36 in NNW 3 mph 3 mph 58% 0 in 301.00 W/m2
09:28 38.7 °F 23 °F 30.36 in NW 2 mph 3 mph 53% 0 in 315.00 W/m2
09:34 39.2 °F 24.4 °F 30.36 in NW 2 mph 2 mph 55% 0 in 316.00 W/m2
09:38 40 °F 25.1 °F 30.36 in NW 1 mph 5 mph 55% 0 in 392.00 W/m2
09:44 40 °F 22.8 °F 30.36 in NW 1 mph 8 mph 50% 0 in 403.00 W/m2
09:48 39.6 °F 21 °F 30.36 in NW 2 mph 8 mph 47% 0 in 422.00 W/m2
09:54 39.3 °F 21.2 °F 30.36 in NNW 2 mph 6 mph 48% 0 in 429.00 W/m2
09:58 40.3 °F 25 °F 30.36 in NW 2 mph 6 mph 54% 0 in 443.00 W/m2
10:04 40 °F 18.7 °F 30.36 in WNW 2 mph 2 mph 42% 0 in 454.00 W/m2
10:08 39.8 °F 21.2 °F 30.37 in NNW 2 mph 2 mph 47% 0 in 461.00 W/m2
10:14 40.4 °F 22.7 °F 30.36 in NNW 2 mph 5 mph 49% 0 in 473.00 W/m2
10:18 40.4 °F 22.7 °F 30.37 in NNW 2 mph 5 mph 49% 0 in 496.00 W/m2
10:24 40 °F 19.3 °F 30.37 in NW 3 mph 4 mph 43% 0 in 496.00 W/m2
10:28 40.1 °F 18.3 °F 30.37 in NNW 3 mph 4 mph 41% 0 in 504.00 W/m2
10:34 40.2 °F 18.9 °F 30.36 in NW 2 mph 3 mph 42% 0 in 527.00 W/m2
10:38 39.9 °F 20.8 °F 30.37 in NW 2 mph 3 mph 46% 0 in 533.00 W/m2
10:44 40.9 °F 19 °F 30.37 in WNW 2 mph 3 mph 41% 0 in 534.00 W/m2
10:48 40.3 °F 19.5 °F 30.37 in NNW 3 mph 3 mph 43% 0 in 541.00 W/m2
10:54 41 °F 22.8 °F 30.37 in NNW 3 mph 5 mph 48% 0 in 552.00 W/m2
10:58 40.4 °F 19.6 °F 30.37 in NW 2 mph 5 mph 43% 0 in 559.00 W/m2
11:04 40.5 °F 19.2 °F 30.37 in NW 2 mph 6 mph 42% 0 in 570.00 W/m2
11:08 40.8 °F 18.3 °F 30.37 in NNW 3 mph 6 mph 40% 0 in 573.00 W/m2
11:14 41.3 °F 21 °F 30.37 in NNW 3 mph 4 mph 44% 0 in 582.00 W/m2
11:18 41.8 °F 18 °F 30.37 in NNW 3 mph 4 mph 38% 0 in 589.00 W/m2
11:24 41.5 °F 20.6 °F 30.37 in North 3 mph 10 mph 43% 0 in 598.00 W/m2
11:28 40.9 °F 19.5 °F 30.38 in NW 3 mph 10 mph 42% 0 in 603.00 W/m2
11:34 41 °F 19.6 °F 30.38 in NW 2 mph 3 mph 42% 0 in 610.00 W/m2
11:38 41.6 °F 19.6 °F 30.38 in NW 3 mph 6 mph 41% 0 in 613.00 W/m2
11:44 42.2 °F 20.2 °F 30.38 in NNW 3 mph 5 mph 41% 0 in 619.00 W/m2
11:48 41.4 °F 17.7 °F 30.38 in North 4 mph 9 mph 38% 0 in 624.00 W/m2
11:54 42.2 °F 21.8 °F 30.38 in NNW 4 mph 5 mph 44% 0 in 628.00 W/m2
11:58 41.5 °F 18.9 °F 30.38 in NNW 4 mph 7 mph 40% 0 in 633.00 W/m2
12:04 42.1 °F 21.2 °F 30.38 in NW 4 mph 5 mph 43% 0 in 636.00 W/m2
12:08 41.9 °F 19.9 °F 30.38 in WNW 4 mph 5 mph 41% 0 in 638.00 W/m2
12:14 41.6 °F 19.6 °F 30.38 in NW 4 mph 11 mph 41% 0 in 643.00 W/m2
12:18 41.6 °F 22.8 °F 30.38 in WNW 4 mph 11 mph 47% 0 in 654.00 W/m2
12:24 41.5 °F 18.9 °F 30.38 in NW 4 mph 6 mph 40% 0 in 664.00 W/m2
12:28 41 °F 21.8 °F 30.38 in NW 3 mph 6 mph 46% 0 in 113.00 W/m2
12:32 40.8 °F 20.5 °F 30.37 in NW 3 mph 3 mph 44% 0 in 680.00 W/m2
12:38 42.6 °F 21.1 °F 30.38 in WNW 2 mph 7 mph 42% 0 in 679.00 W/m2
12:44 42.3 °F 20.8 °F 30.37 in NW 2 mph 3 mph 42% 0 in 670.00 W/m2
12:48 42.2 °F 21.3 °F 30.37 in WSW 2 mph 3 mph 43% 0 in 663.00 W/m2
12:50 42.4 °F 24.1 °F 30.37 in NW 2 mph 2 mph 48% 0 in 668.00 W/m2
12:58 43.1 °F 22.6 °F 30.37 in WNW 2 mph 4 mph 44% 0 in 661.00 W/m2
13:04 42.3 °F 20.2 °F 30.37 in NW 3 mph 11 mph 41% 0 in 679.00 W/m2
13:08 41.7 °F 20.8 °F 30.36 in WNW 4 mph 11 mph 43% 0 in 677.00 W/m2
13:14 41 °F 20.7 °F 30.37 in NW 3 mph 7 mph 44% 0 in 598.00 W/m2
13:18 41.4 °F 21.1 °F 30.36 in North 3 mph 7 mph 44% 0 in 656.00 W/m2
13:24 42.9 °F 23 °F 30.36 in WSW 2 mph 4 mph 45% 0 in 666.00 W/m2
13:28 42.9 °F 22.5 °F 30.36 in NW 3 mph 4 mph 44% 0 in 659.00 W/m2
13:34 42.2 °F 24.9 °F 30.36 in NW 3 mph 5 mph 50% 0 in 671.00 W/m2
13:38 42.5 °F 22.1 °F 30.36 in NW 3 mph 5 mph 44% 0 in 680.00 W/m2
13:44 41.6 °F 22.8 °F 30.36 in WNW 3 mph 3 mph 47% 0 in 775.00 W/m2
13:48 41.2 °F 23.9 °F 30.36 in NW 4 mph 4 mph 50% 0 in 747.00 W/m2
13:54 42 °F 24.2 °F 30.35 in WNW 4 mph 5 mph 49% 0 in 220.00 W/m2
13:58 41.5 °F 24.2 °F 30.35 in NW 3 mph 5 mph 50% 0 in 279.00 W/m2
14:04 41.2 °F 24.9 °F 30.35 in NW 2 mph 9 mph 52% 0 in 211.00 W/m2
14:08 41.7 °F 25.8 °F 30.36 in NNW 1 mph 9 mph 53% 0 in 211.00 W/m2
14:14 40.3 °F 23.6 °F 30.36 in NW 2 mph 3 mph 51% 0 in 174.00 W/m2
14:18 39.6 °F 24.3 °F 30.35 in NW 3 mph 4 mph 54% 0 in 181.00 W/m2
14:24 39.8 °F 23.1 °F 30.35 in WNW 2 mph 5 mph 51% 0 in 151.00 W/m2
14:28 40.4 °F 23.2 °F 30.35 in WNW 2 mph 5 mph 50% 0 in 213.00 W/m2
14:34 40.1 °F 23.4 °F 30.35 in WSW 1 mph 3 mph 51% 0 in 169.00 W/m2
14:38 39.4 °F 24.1 °F 30.34 in WNW 2 mph 3 mph 54% 0 in 127.00 W/m2
14:44 39.1 °F 23.8 °F 30.35 in NNW 2 mph 5 mph 54% 0 in 100.00 W/m2
14:48 38.9 °F 24.1 °F 30.35 in NW 2 mph 5 mph 55% 0 in 149.00 W/m2
14:54 39.1 °F 23.8 °F 30.34 in NW 2 mph 2 mph 54% 0 in 128.00 W/m2
14:58 39.2 °F 24.4 °F 30.34 in NW 2 mph 2 mph 55% 0 in 98.00 W/m2
15:04 39.2 °F 24.8 °F 30.35 in WNW 2 mph 4 mph 56% 0 in 120.00 W/m2
15:08 39.4 °F 24.6 °F 30.35 in NW 2 mph 4 mph 55% 0 in 125.00 W/m2
15:14 39.6 °F 25.6 °F 30.34 in NW 2 mph 2 mph 57% 0 in 121.00 W/m2
15:18 39.6 °F 24.7 °F 30.35 in NW 1 mph 2 mph 55% 0 in 158.00 W/m2
15:24 39.8 °F 25.8 °F 30.34 in NNW 1 mph 2 mph 57% 0 in 158.00 W/m2
15:28 40.3 °F 24.5 °F 30.34 in WSW 1 mph 2 mph 53% 0 in 223.00 W/m2
15:32 40.7 °F 24.9 °F 30.34 in NW 1 mph 2 mph 53% 0 in 292.00 W/m2
15:38 40.3 °F 24.5 °F 30.34 in NW 2 mph 2 mph 53% 0 in 128.00 W/m2
15:44 40.7 °F 27.1 °F 30.33 in NW 2 mph 3 mph 58% 0 in 415.00 W/m2
15:48 41.3 °F 26.8 °F 30.33 in WNW 2 mph 3 mph 56% 0 in 288.00 W/m2
15:54 41.1 °F 27.4 °F 30.33 in West 1 mph 6 mph 58% 0 in 156.00 W/m2
15:58 41.1 °F 26.1 °F 30.33 in WNW 1 mph 6 mph 55% 0 in 134.00 W/m2
16:04 40.6 °F 27 °F 30.33 in WNW 2 mph 7 mph 58% 0 in 91.00 W/m2
16:08 40.2 °F 26.6 °F 30.34 in West 2 mph 7 mph 58% 0 in 86.00 W/m2
16:14 40.1 °F 26.5 °F 30.33 in WNW 1 mph 3 mph 58% 0 in 77.00 W/m2
16:18 39.9 °F 26.3 °F 30.33 in WNW 1 mph 4 mph 58% 0 in 62.00 W/m2
16:24 39.7 °F 26.1 °F 30.33 in West 2 mph 3 mph 58% 0 in 58.00 W/m2
16:28 39.7 °F 26.5 °F 30.33 in WSW 2 mph 3 mph 59% 0 in 54.00 W/m2
16:34 39.7 °F 25.7 °F 30.32 in WNW 1 mph 2 mph 57% 0 in 46.00 W/m2
16:38 39.7 °F 26.5 °F 30.33 in NW 1 mph 2 mph 59% 0 in 53.00 W/m2
16:44 39.8 °F 26.2 °F 30.32 in WNW 1 mph 2 mph 58% 0 in 54.00 W/m2
16:48 39.8 °F 26.2 °F 30.33 in NW 1 mph 3 mph 58% 0 in 46.00 W/m2
16:54 39.8 °F 26.2 °F 30.33 in NW 1 mph 1 mph 58% 0 in 47.00 W/m2
16:58 39.9 °F 26.7 °F 30.33 in Calm   1 mph 59% 0 in 49.00 W/m2
17:04 39.9 °F 26.3 °F 30.32 in Calm   2 mph 58% 0 in 53.00 W/m2
17:08 40 °F 26.8 °F 30.32 in Calm   2 mph 59% 0 in 40.00 W/m2
Country Meadow, Clay, NY, USA
Compliments of Weather Underground - 2 mb